sim
Sign-in with your pilot id or email,
or register
Callsign
Passwort

Schedule Details

Flight Number: RYR5912 (2)
Departure: Seville San Pablo Airport (LEZL) at 13:10
Arrival: Fuerteventura Airport (GCFV) at 15:25
Route: Ryanair Passenger Schedule. Enter filed route here before submitting Pirep.

Weather Information
Getting current METAR information for LEZL 160330Z 04010KT CAVOK 12/08 Q1021 NOSIG
Getting current METAR information for GCFV 160330Z AUTO 28005KT 9999 NCD 14/11 Q1017

Schedule Frequency

Route Map